Date,TemperatureHighF,TemperatureAvgF,TemperatureLowF,DewpointHighF,DewpointAvgF,DewpointLowF,HumidityHigh,HumidityAvg,HumidityLow,PressureMaxIn,PressureMinIn,WindSpeedMaxMPH,WindSpeedAvgMPH,GustSpeedMaxMPH,PrecipitationSumIn
2013-2-1,34.3,29.5,23.7,27.8,17.6,9.8,85,51,33,30.40,29.88,14,6,24,0.06
2013-2-2,30.6,25.8,20.8,26.7,14.1,9.3,87,50,35,30.43,30.09,10,3,18,0.04
2013-2-3,35.2,31.0,27.0,27.4,24.6,22.7,87,70,57,30.10,29.88,10,2,17,0.04
2013-2-4,37.2,30.8,26.6,29.1,18.5,11.6,68,48,36,30.15,29.93,12,5,24,0.01
2013-2-5,44.6,38.3,33.8,33.4,31.1,28.0,84,68,46,30.01,29.91,8,2,11,0.00
2013-2-6,42.8,36.2,26.8,33.1,29.6,20.1,86,70,54,30.42,29.95,8,2,13,0.00
2013-2-7,42.6,34.3,26.4,37.0,24.8,17.6,74,58,43,30.55,30.26,8,3,14,0.00
2013-2-8,46.8,41.8,35.1,45.3,39.6,32.8,95,90,73,30.28,29.62,15,6,24,1.11
2013-2-9,36.9,32.8,28.9,34.0,22.6,16.3,88,56,42,30.42,29.82,15,7,31,0.65
2013-2-10,38.5,31.1,23.0,34.2,19.2,10.2,79,50,38,30.57,30.36,9,2,14,0.01
2013-2-11,52.9,47.4,38.5,51.6,45.5,34.2,95,91,79,30.39,29.74,8,2,11,0.15
2013-2-12,50.4,42.5,34.2,43.6,34.4,28.4,89,66,43,30.05,29.79,7,2,13,0.01
2013-2-13,46.0,38.0,31.8,36.7,31.9,25.3,91,72,56,30.04,29.65,11,4,19,0.28
2013-2-14,46.6,38.4,33.8,38.1,34.1,31.3,89,80,59,30.12,29.75,8,2,11,0.02
2013-2-15,56.7,43.4,35.8,43.1,37.3,32.4,89,73,51,30.13,29.97,5,2,11,0.00
2013-2-16,40.8,36.2,29.5,36.1,32.6,25.0,87,82,63,30.04,29.77,11,4,16,0.09
2013-2-17,34.0,30.6,27.0,23.9,16.9,8.2,65,45,32,30.16,29.76,17,8,29,0.25
2013-2-18,38.3,29.8,23.7,24.8,14.4,8.1,55,39,29,30.41,30.14,15,6,29,0.86
2013-2-19,48.6,42.5,35.6,45.3,36.8,25.7,92,74,55,30.30,29.76,8,3,14,0.07
2013-2-20,40.3,34.5,27.9,32.1,21.4,13.7,71,47,38,30.17,29.85,13,7,23,0.07
2013-2-21,37.0,31.0,25.5,23.3,18.1,12.7,55,46,41,30.36,30.12,12,6,27,0.02
2013-2-22,38.1,33.4,26.8,34.1,25.1,15.8,85,63,50,30.45,30.26,8,3,12,0.04
2013-2-23,49.5,43.9,36.9,48.2,42.5,33.9,95,93,85,30.30,29.80,11,3,16,0.15
2013-2-24,47.8,40.7,35.4,41.6,35.2,24.5,96,76,52,30.11,29.79,9,3,19,0.01
2013-2-25,43.7,36.6,30.0,33.5,27.1,23.6,79,59,46,30.31,30.08,11,2,18,0.01
2013-2-26,49.6,38.9,27.7,48.6,34.9,23.4,95,81,65,30.30,29.69,16,5,27,0.78
2013-2-27,52.9,48.1,44.1,50.6,43.6,37.9,96,80,59,29.74,29.53,11,3,14,0.01
2013-2-28,45.1,41.3,39.0,38.9,36.5,33.1,89,78,62,29.75,29.65,8,2,11,0.14